createdAt,value
2023-04-26T00:00:05.329Z,100209.06
2023-04-26T00:00:36.901Z,100210.72
2023-04-26T00:01:08.517Z,100210.97
2023-04-26T00:01:40.101Z,100210.13
2023-04-26T00:02:11.819Z,100212.88
2023-04-26T00:02:43.349Z,100217.34
2023-04-26T00:03:14.963Z,100210.97
2023-04-26T00:03:46.871Z,100213.50
2023-04-26T00:04:18.881Z,100211.69
2023-04-26T00:04:53.801Z,100207.47
2023-04-26T00:05:25.634Z,100209.06
2023-04-26T00:05:57.304Z,100207.22
2023-04-26T00:06:28.889Z,100207.34
2023-04-26T00:07:00.513Z,100211.09
2023-04-26T00:07:32.101Z,100209.28
2023-04-26T00:08:03.645Z,100208.19
2023-04-26T00:08:35.517Z,100214.34
2023-04-26T00:09:07.074Z,100207.13
2023-04-26T00:09:38.628Z,100214.13
2023-04-26T00:10:10.425Z,100211.69
2023-04-26T00:10:42.100Z,100213.63
2023-04-26T00:11:13.671Z,100209.28
2023-04-26T00:11:45.303Z,100215.53
2023-04-26T00:12:16.932Z,100212.66
2023-04-26T00:12:51.351Z,100216.16
2023-04-26T00:13:23.008Z,100214.34
2023-04-26T00:13:54.524Z,100213.63
2023-04-26T00:14:25.975Z,100211.94
2023-04-26T00:14:57.532Z,100212.88
2023-04-26T00:15:29.198Z,100219.66
2023-04-26T00:16:00.742Z,100216.03
2023-04-26T00:16:32.153Z,100218.78
2023-04-26T00:17:03.758Z,100219.66
2023-04-26T00:17:35.472Z,100216.03
2023-04-26T00:18:07.129Z,100219.31
2023-04-26T00:18:38.757Z,100219.31
2023-04-26T00:19:10.339Z,100218.47
2023-04-26T00:19:41.929Z,100218.56
2023-04-26T00:20:13.573Z,100225.47
2023-04-26T00:20:45.383Z,100218.13
2023-04-26T00:21:16.927Z,100222.09
2023-04-26T00:21:48.542Z,100226.31
2023-04-26T00:22:20.210Z,100220.28
2023-04-26T00:22:51.807Z,100214.84
2023-04-26T00:23:23.395Z,100217.50
2023-04-26T00:23:55.028Z,100213.16
2023-04-26T00:24:26.628Z,100215.47
2023-04-26T00:24:58.181Z,100224.06
2023-04-26T00:25:29.801Z,100221.31
2023-04-26T00:26:01.405Z,100216.63
2023-04-26T00:26:33.018Z,100219.41
2023-04-26T00:27:04.618Z,100215.03
2023-04-26T00:27:36.176Z,100215.88
2023-04-26T00:28:07.850Z,100212.38
2023-04-26T00:28:39.454Z,100214.94
2023-04-26T00:29:11.048Z,100215.88
2023-04-26T00:29:42.618Z,100217.59
2023-04-26T00:30:14.489Z,100213.97
2023-04-26T00:30:46.111Z,100216.63
2023-04-26T00:31:17.886Z,100214.22
2023-04-26T00:31:49.704Z,100215.75
2023-04-26T00:32:21.330Z,100216.63
2023-04-26T00:32:52.996Z,100213.97
2023-04-26T00:33:24.892Z,100213.88
2023-04-26T00:33:56.435Z,100216.25
2023-04-26T00:34:34.384Z,100218.06
2023-04-26T00:35:06.211Z,100209.63
2023-04-26T00:35:37.785Z,100211.31
2023-04-26T00:36:09.215Z,100213.22
2023-04-26T00:36:40.792Z,100206.47
2023-04-26T00:37:12.933Z,100204.75
2023-04-26T00:37:44.643Z,100202.94
2023-04-26T00:38:16.287Z,100206.47
2023-04-26T00:38:47.820Z,100210.16
2023-04-26T00:39:19.316Z,100210.28
2023-04-26T00:39:50.852Z,100217.09
2023-04-26T00:40:22.491Z,100217.81
2023-04-26T00:40:54.056Z,100208.38
2023-04-26T00:41:25.815Z,100204.97
2023-04-26T00:41:57.679Z,100207.63
2023-04-26T00:42:29.322Z,100205.84
2023-04-26T00:43:00.964Z,100207.38
2023-04-26T00:43:32.569Z,100207.19
2023-04-26T00:44:04.267Z,100209.00
2023-04-26T00:44:35.718Z,100203.81
2023-04-26T00:45:07.601Z,100206.47
2023-04-26T00:45:39.281Z,100213.56
2023-04-26T00:46:10.945Z,100207.38
2023-04-26T00:46:42.674Z,100206.66
2023-04-26T00:47:14.298Z,100211.88
2023-04-26T00:47:46.059Z,100207.63
2023-04-26T00:48:17.676Z,100209.13
2023-04-26T00:48:49.294Z,100209.84
2023-04-26T00:49:21.650Z,100206.47
2023-04-26T00:49:53.244Z,100208.25
2023-04-26T00:50:24.718Z,100204.66
2023-04-26T00:50:56.396Z,100206.47
2023-04-26T00:51:27.948Z,100201.16
2023-04-26T00:51:59.652Z,100201.25
2023-04-26T00:52:31.287Z,100198.72
2023-04-26T00:53:02.896Z,100202.84
2023-04-26T00:53:34.512Z,100199.22
2023-04-26T00:54:06.120Z,100200.94
2023-04-26T00:54:37.719Z,100204.75
2023-04-26T00:55:09.427Z,100198.72
2023-04-26T00:55:41.327Z,100196.06
2023-04-26T00:56:13.007Z,100202.19
2023-04-26T00:56:44.734Z,100199.53
2023-04-26T00:57:16.376Z,100198.72
2023-04-26T00:57:47.984Z,100204.00
2023-04-26T00:58:19.679Z,100197.88
2023-04-26T00:58:51.143Z,100205.94
2023-04-26T00:59:22.950Z,100198.59
2023-04-26T00:59:54.540Z,100198.59
2023-04-26T01:00:26.272Z,100201.16
2023-04-26T01:00:57.871Z,100195.94
2023-04-26T01:01:29.396Z,100201.25
2023-04-26T01:02:01.009Z,100196.88
2023-04-26T01:02:32.877Z,100200.28
2023-04-26T01:03:04.619Z,100202.72
2023-04-26T01:03:36.288Z,100198.28
2023-04-26T01:04:07.974Z,100202.59
2023-04-26T01:04:39.632Z,100199.22
2023-04-26T01:05:11.257Z,100197.63
2023-04-26T01:05:42.860Z,100199.44
2023-04-26T01:06:14.494Z,100196.69
2023-04-26T01:06:46.180Z,100201.16
2023-04-26T01:07:17.748Z,100195.84
2023-04-26T01:07:49.419Z,100193.94
2023-04-26T01:08:21.164Z,100199.22
2023-04-26T01:08:53.080Z,100193.94
2023-04-26T01:09:24.591Z,100201.78
2023-04-26T01:09:56.043Z,100202.59
2023-04-26T01:10:27.682Z,100201.66
2023-04-26T01:10:59.298Z,100195.63
2023-04-26T01:11:31.270Z,100193.94
2023-04-26T01:12:03.030Z,100199.34
2023-04-26T01:12:34.580Z,100196.22
2023-04-26T01:13:06.552Z,100198.28
2023-04-26T01:13:38.222Z,100201.16
2023-04-26T01:14:09.817Z,100204.53
2023-04-26T01:14:41.483Z,100202.84
2023-04-26T01:15:13.023Z,100199.34
2023-04-26T01:15:47.163Z,100197.63
2023-04-26T01:16:19.257Z,100201.16
2023-04-26T01:16:50.963Z,100199.53
2023-04-26T01:17:22.739Z,100201.16
2023-04-26T01:17:54.372Z,100198.28
2023-04-26T01:18:26.030Z,100194.66
2023-04-26T01:18:57.580Z,100207.06
2023-04-26T01:19:29.073Z,100201.78
2023-04-26T01:20:00.780Z,100198.28
2023-04-26T01:20:32.363Z,100199.22
2023-04-26T01:21:03.998Z,100193.94
2023-04-26T01:21:35.666Z,100203.47
2023-04-26T01:22:07.268Z,100198.88
2023-04-26T01:22:38.913Z,100196.34
2023-04-26T01:23:10.533Z,100200.72
2023-04-26T01:23:42.133Z,100204.31
2023-04-26T01:24:13.767Z,100197.31
2023-04-26T01:24:45.821Z,100197.41
2023-04-26T01:25:17.490Z,100199.00
2023-04-26T01:25:49.196Z,100194.53
2023-04-26T01:26:20.798Z,100199.00
2023-04-26T01:26:52.463Z,100199.00
2023-04-26T01:27:24.100Z,100200.06
2023-04-26T01:27:55.732Z,100193.69
2023-04-26T01:28:27.284Z,100201.78
2023-04-26T01:28:58.915Z,100199.00
2023-04-26T01:29:30.521Z,100204.53
2023-04-26T01:30:02.273Z,100200.19
2023-04-26T01:30:33.831Z,100197.31
2023-04-26T01:31:05.606Z,100202.59
2023-04-26T01:31:37.637Z,100209.63
2023-04-26T01:32:09.376Z,100205.25
2023-04-26T01:32:40.983Z,100196.22
2023-04-26T01:33:12.542Z,100199.84
2023-04-26T01:33:44.126Z,100200.94
2023-04-26T01:34:15.797Z,100200.06
2023-04-26T01:34:47.400Z,100201.88
2023-04-26T01:35:19.058Z,100203.72
2023-04-26T01:35:50.729Z,100206.13
2023-04-26T01:36:22.409Z,100203.38
2023-04-26T01:36:54.013Z,100202.84
2023-04-26T01:37:25.664Z,100199.97
2023-04-26T01:37:57.318Z,100210.47
2023-04-26T01:38:28.965Z,100205.25
2023-04-26T01:39:00.577Z,100207.69
2023-04-26T01:39:32.166Z,100204.31
2023-04-26T01:40:03.846Z,100204.44
2023-04-26T01:40:35.419Z,100204.44
2023-04-26T01:41:07.114Z,100206.75
2023-04-26T01:41:38.686Z,100206.84
2023-04-26T01:42:10.364Z,100204.31
2023-04-26T01:42:41.950Z,100199.84
2023-04-26T01:43:13.596Z,100202.59
2023-04-26T01:43:45.207Z,100209.63
2023-04-26T01:44:16.867Z,100202.72
2023-04-26T01:44:48.593Z,100207.31
2023-04-26T01:45:20.216Z,100215.03
2023-04-26T01:45:51.851Z,100202.59
2023-04-26T01:46:23.503Z,100206.25
2023-04-26T01:46:55.205Z,100202.59
2023-04-26T01:47:26.874Z,100209.75
2023-04-26T01:47:58.638Z,100209.84
2023-04-26T01:48:30.346Z,100204.53
2023-04-26T01:49:01.948Z,100211.56
2023-04-26T01:49:33.591Z,100212.50
2023-04-26T01:50:05.699Z,100203.72
2023-04-26T01:50:37.456Z,100212.50
2023-04-26T01:51:09.165Z,100212.50
2023-04-26T01:51:40.772Z,100210.69
2023-04-26T01:52:12.462Z,100216.97
2023-04-26T01:52:44.043Z,100209.63
2023-04-26T01:53:15.665Z,100210.56
2023-04-26T01:53:47.555Z,100213.22
2023-04-26T01:54:19.239Z,100206.13
2023-04-26T01:54:50.868Z,100207.69
2023-04-26T01:55:22.539Z,100210.34
2023-04-26T01:55:54.225Z,100209.63
2023-04-26T01:56:25.819Z,100218.31
2023-04-26T01:56:57.429Z,100212.38
2023-04-26T01:57:28.952Z,100209.63
2023-04-26T01:58:00.594Z,100217.81
2023-04-26T01:58:32.224Z,100213.44
2023-04-26T01:59:04.016Z,100208.91
2023-04-26T01:59:35.587Z,100214.22
2023-04-26T02:00:07.610Z,100211.56
2023-04-26T02:00:39.193Z,100214.22
2023-04-26T02:01:10.856Z,100213.34
2023-04-26T02:01:42.510Z,100207.19
2023-04-26T02:02:14.229Z,100211.56
2023-04-26T02:02:46.027Z,100208.03
2023-04-26T02:03:17.774Z,100209.00
2023-04-26T02:03:49.600Z,100213.09
2023-04-26T02:04:21.472Z,100206.97
2023-04-26T02:04:53.191Z,100207.91
2023-04-26T02:05:24.995Z,100213.22
2023-04-26T02:05:56.707Z,100214.22
2023-04-26T02:06:28.374Z,100208.91
2023-04-26T02:07:00.151Z,100207.91
2023-04-26T02:07:31.804Z,100206.84
2023-04-26T02:08:03.533Z,100213.22
2023-04-26T02:08:35.579Z,100213.97
2023-04-26T02:09:07.158Z,100210.47
2023-04-26T02:09:38.699Z,100204.31
2023-04-26T02:10:10.402Z,100209.75
2023-04-26T02:10:42.020Z,100206.25
2023-04-26T02:11:13.725Z,100208.66
2023-04-26T02:11:45.409Z,100202.38
2023-04-26T02:12:17.001Z,100206.00
2023-04-26T02:12:48.640Z,100200.44
2023-04-26T02:13:20.333Z,100204.09
2023-04-26T02:13:51.882Z,100202.16
2023-04-26T02:14:23.505Z,100200.44
2023-04-26T02:14:55.105Z,100206.63
2023-04-26T02:15:26.609Z,100201.31
2023-04-26T02:15:58.178Z,100203.09
2023-04-26T02:16:29.958Z,100199.63
2023-04-26T02:17:01.624Z,100202.38
2023-04-26T02:17:33.280Z,100207.69
2023-04-26T02:18:04.915Z,100206.13
2023-04-26T02:18:36.840Z,100202.38
2023-04-26T02:19:08.527Z,100204.19
2023-04-26T02:19:40.314Z,100203.38
2023-04-26T02:20:12.187Z,100200.59
2023-04-26T02:20:43.740Z,100199.00
2023-04-26T02:21:16.737Z,100202.25
2023-04-26T02:21:51.820Z,100205.16
2023-04-26T02:22:23.648Z,100201.53
2023-04-26T02:22:54.927Z,100204.31
2023-04-26T02:23:26.387Z,100208.56
2023-04-26T02:23:58.077Z,100209.41
2023-04-26T02:24:30.311Z,100206.84
2023-04-26T02:25:02.970Z,100203.38
2023-04-26T02:25:34.529Z,100204.31
2023-04-26T02:26:06.499Z,100201.78
2023-04-26T02:26:38.148Z,100204.44
2023-04-26T02:27:09.859Z,100202.50
2023-04-26T02:27:41.342Z,100206.00
2023-04-26T02:28:13.047Z,100205.16
2023-04-26T02:28:44.696Z,100207.69
2023-04-26T02:29:16.354Z,100212.38
2023-04-26T02:29:48.002Z,100211.44
2023-04-26T02:30:19.573Z,100206.97
2023-04-26T02:30:51.176Z,100216.63
2023-04-26T02:31:23.294Z,100214.09
2023-04-26T02:31:54.923Z,100212.28
2023-04-26T02:32:26.641Z,100213.34
2023-04-26T02:32:58.293Z,100217.59
2023-04-26T02:33:29.986Z,100210.47
2023-04-26T02:34:01.601Z,100212.16
2023-04-26T02:34:33.236Z,100213.88
2023-04-26T02:35:04.913Z,100216.63
2023-04-26T02:35:36.642Z,100210.34
2023-04-26T02:36:08.448Z,100213.97
2023-04-26T02:36:40.205Z,100207.91
2023-04-26T02:37:11.779Z,100210.47
2023-04-26T02:37:43.353Z,100211.31
2023-04-26T02:38:14.988Z,100213.00
2023-04-26T02:38:46.591Z,100215.53
2023-04-26T02:39:18.157Z,100212.03
2023-04-26T02:39:50.258Z,100208.56
2023-04-26T02:40:21.892Z,100213.00
2023-04-26T02:40:59.926Z,100213.00
2023-04-26T02:41:31.806Z,100213.22
2023-04-26T02:42:03.468Z,100216.63
2023-04-26T02:42:35.088Z,100215.75
2023-04-26T02:43:06.736Z,100202.50
2023-04-26T02:43:38.370Z,100209.63
2023-04-26T02:44:10.173Z,100212.16
2023-04-26T02:44:41.755Z,100212.16
2023-04-26T02:45:13.437Z,100211.22
2023-04-26T02:45:44.981Z,100213.72
2023-04-26T02:46:17.433Z,100210.00
2023-04-26T02:46:49.240Z,100213.50
2023-04-26T02:47:20.957Z,100212.53
2023-04-26T02:47:52.511Z,100209.66
2023-04-26T02:48:24.446Z,100210.59
2023-04-26T02:48:56.011Z,100213.38
2023-04-26T02:49:27.649Z,100206.41
2023-04-26T02:49:59.355Z,100210.00
2023-04-26T02:50:30.947Z,100208.28
2023-04-26T02:51:02.562Z,100207.47
2023-04-26T02:51:34.200Z,100215.91
2023-04-26T02:52:05.869Z,100208.06
2023-04-26T02:52:37.418Z,100210.84
2023-04-26T02:53:09.000Z,100211.81
2023-04-26T02:53:40.744Z,100214.47
2023-04-26T02:54:12.386Z,100206.63
2023-04-26T02:54:44.027Z,100206.63
2023-04-26T02:55:15.641Z,100207.47
2023-04-26T02:55:47.237Z,100209.88
2023-04-26T02:56:18.847Z,100208.94
2023-04-26T02:56:50.455Z,100205.28
2023-04-26T02:57:22.080Z,100200.22
2023-04-26T02:57:53.707Z,100208.19
2023-04-26T02:58:25.287Z,100201.09
2023-04-26T02:58:57.019Z,100205.41
2023-04-26T02:59:29.444Z,100201.69
2023-04-26T03:00:00.950Z,100205.06
2023-04-26T03:00:32.420Z,100195.53
2023-04-26T03:01:04.096Z,100202.66
2023-04-26T03:01:35.794Z,100203.75
2023-04-26T03:02:07.544Z,100203.63
2023-04-26T03:02:39.578Z,100201.19
2023-04-26T03:03:11.342Z,100203.63
2023-04-26T03:03:43.122Z,100205.41
2023-04-26T03:04:14.999Z,100201.91
2023-04-26T03:04:46.690Z,100203.63
2023-04-26T03:05:18.362Z,100197.44
2023-04-26T03:05:50.095Z,100205.28
2023-04-26T03:06:21.692Z,100205.41
2023-04-26T03:06:53.311Z,100208.19
2023-04-26T03:07:24.838Z,100206.28
2023-04-26T03:07:56.341Z,100199.25
2023-04-26T03:08:28.011Z,100203.84
2023-04-26T03:08:59.684Z,100206.41
2023-04-26T03:09:31.226Z,100204.69
2023-04-26T03:10:02.866Z,100202.16
2023-04-26T03:10:34.426Z,100203.97
2023-04-26T03:11:38.533Z,100200.44
2023-04-26T03:12:09.847Z,100204.09
2023-04-26T03:12:41.246Z,100213.72
2023-04-26T03:13:12.593Z,100211.81
2023-04-26T03:13:43.933Z,100210.22
2023-04-26T03:14:15.230Z,100205.75
2023-04-26T03:14:46.505Z,100207.47
2023-04-26T03:15:17.863Z,100207.34
2023-04-26T03:15:49.161Z,100210.84
2023-04-26T03:16:20.479Z,100209.16
2023-04-26T03:16:51.965Z,100208.28
2023-04-26T03:17:23.341Z,100209.16
2023-04-26T03:17:54.737Z,100206.41
2023-04-26T03:18:26.046Z,100208.94
2023-04-26T03:18:57.391Z,100206.16
2023-04-26T03:19:28.700Z,100200.09
2023-04-26T03:20:02.379Z,100205.63
2023-04-26T03:20:34.134Z,100208.41
2023-04-26T03:21:08.074Z,100199.63
2023-04-26T03:21:39.380Z,100207.13
2023-04-26T03:22:10.702Z,100205.53
2023-04-26T03:22:41.972Z,100207.47
2023-04-26T03:23:13.302Z,100196.97
2023-04-26T03:23:44.591Z,100201.44
2023-04-26T03:24:15.900Z,100208.56
2023-04-26T03:24:47.228Z,100202.38
2023-04-26T03:25:18.533Z,100199.72
2023-04-26T03:25:49.836Z,100198.16
2023-04-26T03:26:21.169Z,100205.16
2023-04-26T03:26:52.502Z,100199.84
2023-04-26T03:27:23.911Z,100199.63
2023-04-26T03:27:55.272Z,100200.44
2023-04-26T03:28:26.611Z,100202.03
2023-04-26T03:28:57.899Z,100195.03
2023-04-26T03:29:29.323Z,100206.50
2023-04-26T03:30:00.668Z,100200.22
2023-04-26T03:30:31.964Z,100192.03
2023-04-26T03:31:03.353Z,100195.88
2023-04-26T03:31:34.678Z,100192.38
2023-04-26T03:32:06.000Z,100194.19
2023-04-26T03:32:37.360Z,100201.91
2023-04-26T03:33:08.726Z,100193.00
2023-04-26T03:33:40.048Z,100197.44
2023-04-26T03:34:11.353Z,100194.56
2023-04-26T03:34:42.680Z,100197.94
2023-04-26T03:35:13.978Z,100199.75
2023-04-26T03:35:45.300Z,100193.72
2023-04-26T03:36:16.794Z,100197.44
2023-04-26T03:36:48.094Z,100189.59
2023-04-26T03:37:19.430Z,100196.38
2023-04-26T03:37:53.158Z,100191.06
2023-04-26T03:38:24.782Z,100193.84
2023-04-26T03:38:56.105Z,100189.38
2023-04-26T03:39:27.417Z,100194.69
2023-04-26T03:39:58.725Z,100189.50
2023-04-26T03:40:30.033Z,100199.25
2023-04-26T03:41:01.405Z,100201.19
2023-04-26T03:41:32.773Z,100186.22
2023-04-26T03:42:04.123Z,100191.06
2023-04-26T03:42:35.882Z,100185.75
2023-04-26T03:43:07.210Z,100198.31
2023-04-26T03:43:38.505Z,100190.47
2023-04-26T03:44:09.801Z,100199.38
2023-04-26T03:44:41.157Z,100195.78
2023-04-26T03:45:12.457Z,100190.47
2023-04-26T03:45:46.399Z,100190.25
2023-04-26T03:46:17.762Z,100191.31
2023-04-26T03:46:49.128Z,100188.53
2023-04-26T03:47:20.466Z,100201.91
2023-04-26T03:47:51.832Z,100196.63
2023-04-26T03:48:23.169Z,100193.00
2023-04-26T03:48:54.657Z,100196.38
2023-04-26T03:49:26.072Z,100189.38
2023-04-26T03:49:57.530Z,100192.78
2023-04-26T03:50:28.854Z,100189.38
2023-04-26T03:51:00.121Z,100198.09
2023-04-26T03:51:31.462Z,100191.06
2023-04-26T03:52:02.834Z,100193.00
2023-04-26T03:52:34.161Z,100186.13
2023-04-26T03:53:05.525Z,100189.59
2023-04-26T03:53:36.847Z,100194.69
2023-04-26T03:54:08.216Z,100196.38
2023-04-26T03:54:39.552Z,100197.09
2023-04-26T03:55:10.902Z,100185.75
2023-04-26T03:55:42.252Z,100195.28
2023-04-26T03:56:13.551Z,100191.91
2023-04-26T03:56:44.974Z,100198.31
2023-04-26T03:57:16.334Z,100190.34
2023-04-26T03:57:47.852Z,100196.25
2023-04-26T03:58:19.157Z,100194.44
2023-04-26T03:58:50.669Z,100193.63
2023-04-26T03:59:22.191Z,100200.00
2023-04-26T03:59:53.562Z,100191.19
2023-04-26T04:00:24.850Z,100190.25
2023-04-26T04:00:56.474Z,100184.28
2023-04-26T04:01:27.802Z,100193.25
2023-04-26T04:01:59.170Z,100196.84
2023-04-26T04:02:30.725Z,100197.56
2023-04-26T04:03:02.249Z,100197.56
2023-04-26T04:03:33.862Z,100187.69
2023-04-26T04:04:05.462Z,100194.91
2023-04-26T04:04:37.049Z,100202.88
2023-04-26T04:05:08.582Z,100196.63
2023-04-26T04:05:40.022Z,100194.69
2023-04-26T04:06:11.350Z,100197.34
2023-04-26T04:06:42.661Z,100198.09
2023-04-26T04:07:13.980Z,100201.91
2023-04-26T04:07:45.310Z,100195.44
2023-04-26T04:08:16.625Z,100191.31
2023-04-26T04:08:47.945Z,100194.56
2023-04-26T04:09:19.229Z,100188.31
2023-04-26T04:09:50.550Z,100186.38
2023-04-26T04:10:22.177Z,100192.78
2023-04-26T04:10:53.544Z,100190.13
2023-04-26T04:11:24.846Z,100196.38
2023-04-26T04:11:56.209Z,100192.03
2023-04-26T04:12:27.547Z,100191.19
2023-04-26T04:12:58.838Z,100193.00
2023-04-26T04:13:30.223Z,100195.44
2023-04-26T04:14:01.559Z,100193.00
2023-04-26T04:14:32.852Z,100195.53
2023-04-26T04:15:04.436Z,100193.63
2023-04-26T04:15:35.787Z,100191.06
2023-04-26T04:16:07.174Z,100186.38
2023-04-26T04:16:38.741Z,100185.53
2023-04-26T04:17:10.067Z,100191.56
2023-04-26T04:17:41.391Z,100191.44
2023-04-26T04:18:12.766Z,100188.06
2023-04-26T04:18:44.102Z,100191.78
2023-04-26T04:19:15.410Z,100191.06
2023-04-26T04:19:46.701Z,100181.28
2023-04-26T04:20:18.073Z,100185.75
2023-04-26T04:20:49.371Z,100186.50
2023-04-26T04:21:20.649Z,100191.69
2023-04-26T04:21:51.974Z,100190.97
2023-04-26T04:22:23.289Z,100190.97
2023-04-26T04:22:54.637Z,100189.13
2023-04-26T04:23:25.970Z,100189.13
2023-04-26T04:23:57.325Z,100190.13
2023-04-26T04:24:28.646Z,100193.63
2023-04-26T04:24:59.965Z,100191.19
2023-04-26T04:25:31.263Z,100198.19
2023-04-26T04:26:02.571Z,100192.78
2023-04-26T04:26:33.864Z,100187.31
2023-04-26T04:27:05.203Z,100190.84
2023-04-26T04:27:36.798Z,100192.78
2023-04-26T04:28:08.110Z,100192.50
2023-04-26T04:28:39.791Z,100192.78
2023-04-26T04:29:11.082Z,100193.63
2023-04-26T04:29:42.418Z,100191.06
2023-04-26T04:30:13.861Z,100188.31
2023-04-26T04:30:45.175Z,100204.34
2023-04-26T04:31:16.629Z,100194.69
2023-04-26T04:31:48.042Z,100194.56
2023-04-26T04:32:19.571Z,100196.38
2023-04-26T04:32:50.952Z,100200.97
2023-04-26T04:33:22.249Z,100201.81
2023-04-26T04:33:53.585Z,100198.09
2023-04-26T04:34:24.925Z,100194.69
2023-04-26T04:34:56.439Z,100191.91
2023-04-26T04:35:27.747Z,100198.09
2023-04-26T04:35:59.075Z,100198.31
2023-04-26T04:36:30.377Z,100193.00
2023-04-26T04:37:01.729Z,100196.38
2023-04-26T04:37:33.108Z,100191.19
2023-04-26T04:38:04.571Z,100196.38
2023-04-26T04:38:35.852Z,100193.72
2023-04-26T04:39:07.135Z,100197.94
2023-04-26T04:39:38.464Z,100198.09
2023-04-26T04:40:11.514Z,100196.38
2023-04-26T04:40:43.136Z,100197.94
2023-04-26T04:41:14.473Z,100199.16
2023-04-26T04:41:45.836Z,100198.81
2023-04-26T04:42:17.145Z,100200.38
2023-04-26T04:42:48.471Z,100194.94
2023-04-26T04:43:19.813Z,100201.00
2023-04-26T04:43:51.122Z,100197.81
2023-04-26T04:44:22.427Z,100201.47
2023-04-26T04:44:54.040Z,100199.75
2023-04-26T04:45:25.341Z,100208.69
2023-04-26T04:45:56.641Z,100197.22
2023-04-26T04:46:28.039Z,100200.59
2023-04-26T04:46:59.538Z,100195.53
2023-04-26T04:47:30.986Z,100204.34
2023-04-26T04:48:02.372Z,100196.38
2023-04-26T04:48:33.731Z,100201.47
2023-04-26T04:49:05.084Z,100210.38
2023-04-26T04:49:36.442Z,100206.06
2023-04-26T04:50:07.924Z,100207.72
2023-04-26T04:50:39.405Z,100213.63
2023-04-26T04:51:10.753Z,100203.88
2023-04-26T04:51:42.050Z,100211.09
2023-04-26T04:52:13.367Z,100207.72
2023-04-26T04:52:44.758Z,100218.13
2023-04-26T04:53:16.146Z,100211.84
2023-04-26T04:53:47.513Z,100213.03
2023-04-26T04:54:18.837Z,100211.38
2023-04-26T04:54:50.163Z,100208.69
2023-04-26T04:55:21.498Z,100211.97
2023-04-26T04:55:52.849Z,100210.38
2023-04-26T04:56:24.252Z,100212.91
2023-04-26T04:56:55.561Z,100207.84
2023-04-26T04:57:27.073Z,100219.06
2023-04-26T04:57:58.399Z,100222.69
2023-04-26T04:58:29.688Z,100213.03
2023-04-26T04:59:01.070Z,100217.50
2023-04-26T04:59:32.403Z,100216.41
2023-04-26T05:00:04.286Z,100215.47
2023-04-26T05:00:36.255Z,100210.16
2023-04-26T05:01:07.574Z,100213.53
2023-04-26T05:01:39.081Z,100216.41
2023-04-26T05:02:10.605Z,100219.06
2023-04-26T05:02:42.182Z,100218.34
2023-04-26T05:03:16.864Z,100211.09
2023-04-26T05:03:48.610Z,100219.94
2023-04-26T05:04:20.168Z,100208.69
2023-04-26T05:04:51.820Z,100217.38
2023-04-26T05:05:23.197Z,100216.53
2023-04-26T05:05:54.512Z,100221.00
2023-04-26T05:06:26.723Z,100223.75
2023-04-26T05:06:58.044Z,100221.84
2023-04-26T05:07:29.411Z,100213.03
2023-04-26T05:08:00.764Z,100219.94
2023-04-26T05:08:32.068Z,100218.34
2023-04-26T05:09:03.460Z,100221.97
2023-04-26T05:09:34.958Z,100213.03
2023-04-26T05:10:06.507Z,100217.28
2023-04-26T05:10:37.858Z,100214.38
2023-04-26T05:11:09.145Z,100215.34
2023-04-26T05:11:40.484Z,100217.16
2023-04-26T05:12:11.824Z,100218.84
2023-04-26T05:12:43.115Z,100217.88
2023-04-26T05:13:14.441Z,100218.94
2023-04-26T05:13:46.155Z,100222.47
2023-04-26T05:14:17.466Z,100225.13
2023-04-26T05:14:48.806Z,100222.47
2023-04-26T05:15:20.089Z,100219.59
2023-04-26T05:15:51.414Z,100225.84
2023-04-26T05:16:22.811Z,100222.47
2023-04-26T05:16:54.313Z,100226.06
2023-04-26T05:17:25.668Z,100229.44
2023-04-26T05:17:57.050Z,100227.91
2023-04-26T05:18:28.391Z,100218.34
2023-04-26T05:18:59.777Z,100231.28
2023-04-26T05:19:31.164Z,100225.34
2023-04-26T05:20:02.599Z,100225.25
2023-04-26T05:20:33.912Z,100234.16
2023-04-26T05:21:05.296Z,100226.78
2023-04-26T05:21:36.651Z,100238.41
2023-04-26T05:22:07.954Z,100229.69
2023-04-26T05:22:39.315Z,100233.09
2023-04-26T05:23:10.617Z,100229.69
2023-04-26T05:23:41.950Z,100233.09
2023-04-26T05:24:13.260Z,100229.69
2023-04-26T05:24:47.698Z,100229.44
2023-04-26T05:25:20.249Z,100228.63
2023-04-26T05:25:53.562Z,100229.44
2023-04-26T05:26:24.861Z,100233.09
2023-04-26T05:26:57.792Z,100228.63
2023-04-26T05:27:29.219Z,100232.59
2023-04-26T05:28:00.523Z,100233.81
2023-04-26T05:28:31.835Z,100233.81
2023-04-26T05:29:03.175Z,100226.69
2023-04-26T05:29:34.522Z,100238.16
2023-04-26T05:30:06.276Z,100238.16
2023-04-26T05:30:37.729Z,100237.19
2023-04-26T05:31:11.243Z,100240.81
2023-04-26T05:31:42.948Z,100241.78
2023-04-26T05:32:14.292Z,100239.13
2023-04-26T05:32:45.762Z,100243.72
2023-04-26T05:33:17.236Z,100240.06
2023-04-26T05:33:48.558Z,100237.19
2023-04-26T05:34:19.923Z,100239.13
2023-04-26T05:34:51.236Z,100238.41
2023-04-26T05:35:22.844Z,100239.13
2023-04-26T05:35:54.248Z,100243.47
2023-04-26T05:36:26.430Z,100245.16
2023-04-26T05:36:59.291Z,100239.72
2023-04-26T05:37:30.617Z,100238.16
2023-04-26T05:38:01.949Z,100243.47
2023-04-26T05:38:33.320Z,100245.16
2023-04-26T05:39:04.638Z,100250.47
2023-04-26T05:39:35.957Z,100248.78
2023-04-26T05:40:07.646Z,100252.06
2023-04-26T05:40:38.941Z,100252.06
2023-04-26T05:41:10.297Z,100249.41
2023-04-26T05:41:41.628Z,100250.22
2023-04-26T05:42:12.942Z,100253.63
2023-04-26T05:42:44.312Z,100250.00
2023-04-26T05:43:15.705Z,100259.78
2023-04-26T05:43:47.287Z,100246.41
2023-04-26T05:44:18.636Z,100253.38
2023-04-26T05:44:49.968Z,100253.63
2023-04-26T05:45:21.270Z,100256.03
2023-04-26T05:45:52.948Z,100253.25
2023-04-26T05:46:24.434Z,100250.00
2023-04-26T05:46:55.975Z,100251.81
2023-04-26T05:47:27.298Z,100248.31
2023-04-26T05:47:58.714Z,100257.97
2023-04-26T05:48:30.120Z,100243.84
2023-04-26T05:49:01.414Z,100252.06
2023-04-26T05:49:32.728Z,100249.41
2023-04-26T05:50:04.146Z,100254.59
2023-04-26T05:50:35.441Z,100253.63
2023-04-26T05:51:06.751Z,100253.50
2023-04-26T05:51:38.106Z,100249.16
2023-04-26T05:52:09.424Z,100261.22
2023-04-26T05:52:40.748Z,100254.38
2023-04-26T05:53:12.048Z,100259.69
2023-04-26T05:53:43.334Z,100254.25
2023-04-26T05:54:14.678Z,100252.53
2023-04-26T05:54:46.008Z,100251.72
2023-04-26T05:55:17.321Z,100257.13
2023-04-26T05:55:48.645Z,100250.22
2023-04-26T05:56:19.975Z,100254.72
2023-04-26T05:56:51.295Z,100258.19
2023-04-26T05:57:22.752Z,100250.22
2023-04-26T05:57:54.164Z,100257.25
2023-04-26T05:58:25.471Z,100259.03
2023-04-26T05:58:57.579Z,100252.78
2023-04-26T05:59:28.926Z,100257.25
2023-04-26T06:00:00.316Z,100251.94
2023-04-26T06:00:31.628Z,100252.78
2023-04-26T06:01:02.945Z,100259.91